sensor_id;sensor_type;location;lat;lon;timestamp;P1;durP1;ratioP1;P2;durP2;ratioP2
62102;SDS011;48077;48.104;11.702;2023-07-30T00:00:36;46.53;;;42.35;;
62102;SDS011;48077;48.104;11.702;2023-07-30T00:07:42;59.45;;;54.25;;
62102;SDS011;48077;48.104;11.702;2023-07-30T00:10:05;63.30;;;57.67;;
62102;SDS011;48077;48.104;11.702;2023-07-30T00:12:29;58.78;;;53.67;;
62102;SDS011;48077;48.104;11.702;2023-07-30T00:14:52;59.47;;;54.25;;
62102;SDS011;48077;48.104;11.702;2023-07-30T00:17:16;55.42;;;50.40;;
62102;SDS011;48077;48.104;11.702;2023-07-30T00:19:39;55.08;;;50.15;;
62102;SDS011;48077;48.104;11.702;2023-07-30T00:22:02;57.00;;;51.83;;
62102;SDS011;48077;48.104;11.702;2023-07-30T00:24:26;53.40;;;48.90;;
62102;SDS011;48077;48.104;11.702;2023-07-30T00:26:49;53.33;;;48.88;;
62102;SDS011;48077;48.104;11.702;2023-07-30T00:29:12;51.90;;;47.28;;
62102;SDS011;48077;48.104;11.702;2023-07-30T00:31:36;54.00;;;49.35;;
62102;SDS011;48077;48.104;11.702;2023-07-30T00:33:59;58.47;;;53.33;;
62102;SDS011;48077;48.104;11.702;2023-07-30T00:36:22;52.35;;;47.80;;
62102;SDS011;48077;48.104;11.702;2023-07-30T00:38:49;51.55;;;47.22;;
62102;SDS011;48077;48.104;11.702;2023-07-30T00:41:12;51.95;;;47.55;;
62102;SDS011;48077;48.104;11.702;2023-07-30T00:43:35;53.90;;;49.10;;
62102;SDS011;48077;48.104;11.702;2023-07-30T00:45:59;43.55;;;40.05;;
62102;SDS011;48077;48.104;11.702;2023-07-30T00:48:22;49.67;;;45.63;;
62102;SDS011;48077;48.104;11.702;2023-07-30T00:50:45;51.55;;;47.13;;
62102;SDS011;48077;48.104;11.702;2023-07-30T00:53:09;55.55;;;50.72;;
62102;SDS011;48077;48.104;11.702;2023-07-30T00:55:36;52.60;;;48.17;;
62102;SDS011;48077;48.104;11.702;2023-07-30T00:58:00;54.72;;;50.00;;
62102;SDS011;48077;48.104;11.702;2023-07-30T01:00:25;54.17;;;49.75;;
62102;SDS011;48077;48.104;11.702;2023-07-30T01:02:50;50.90;;;46.65;;
62102;SDS011;48077;48.104;11.702;2023-07-30T01:05:14;51.10;;;46.80;;
62102;SDS011;48077;48.104;11.702;2023-07-30T01:07:37;54.60;;;49.90;;
62102;SDS011;48077;48.104;11.702;2023-07-30T01:10:01;51.65;;;47.10;;
62102;SDS011;48077;48.104;11.702;2023-07-30T01:12:26;50.95;;;46.78;;
62102;SDS011;48077;48.104;11.702;2023-07-30T01:14:51;56.28;;;51.47;;
62102;SDS011;48077;48.104;11.702;2023-07-30T01:17:17;56.42;;;51.60;;
62102;SDS011;48077;48.104;11.702;2023-07-30T01:19:41;56.95;;;51.90;;
62102;SDS011;48077;48.104;11.702;2023-07-30T01:22:04;52.70;;;48.28;;
62102;SDS011;48077;48.104;11.702;2023-07-30T01:24:28;59.17;;;54.03;;
62102;SDS011;48077;48.104;11.702;2023-07-30T01:26:55;56.78;;;52.00;;
62102;SDS011;48077;48.104;11.702;2023-07-30T01:29:22;62.75;;;57.30;;
62102;SDS011;48077;48.104;11.702;2023-07-30T01:31:57;59.42;;;54.22;;
62102;SDS011;48077;48.104;11.702;2023-07-30T01:34:27;57.45;;;52.50;;
62102;SDS011;48077;48.104;11.702;2023-07-30T01:36:51;55.03;;;50.45;;
62102;SDS011;48077;48.104;11.702;2023-07-30T01:39:16;54.03;;;49.42;;
62102;SDS011;48077;48.104;11.702;2023-07-30T01:41:40;57.50;;;52.50;;
62102;SDS011;48077;48.104;11.702;2023-07-30T01:44:04;58.25;;;53.05;;
62102;SDS011;48077;48.104;11.702;2023-07-30T01:46:27;58.55;;;53.40;;
62102;SDS011;48077;48.104;11.702;2023-07-30T01:48:50;58.92;;;53.80;;
62102;SDS011;48077;48.104;11.702;2023-07-30T01:51:14;57.25;;;52.33;;
62102;SDS011;48077;48.104;11.702;2023-07-30T01:53:37;60.50;;;55.20;;
62102;SDS011;48077;48.104;11.702;2023-07-30T01:56:03;62.13;;;56.67;;
62102;SDS011;48077;48.104;11.702;2023-07-30T01:58:26;58.22;;;53.22;;
62102;SDS011;48077;48.104;11.702;2023-07-30T02:00:49;57.00;;;52.13;;
62102;SDS011;48077;48.104;11.702;2023-07-30T02:03:13;59.97;;;54.67;;
62102;SDS011;48077;48.104;11.702;2023-07-30T02:05:36;57.88;;;52.50;;
62102;SDS011;48077;48.104;11.702;2023-07-30T02:07:59;54.45;;;49.83;;
62102;SDS011;48077;48.104;11.702;2023-07-30T02:10:25;60.15;;;54.83;;
62102;SDS011;48077;48.104;11.702;2023-07-30T02:12:52;57.13;;;52.15;;
62102;SDS011;48077;48.104;11.702;2023-07-30T02:15:15;61.85;;;56.28;;
62102;SDS011;48077;48.104;11.702;2023-07-30T02:17:39;62.78;;;57.03;;
62102;SDS011;48077;48.104;11.702;2023-07-30T02:20:02;63.05;;;57.35;;
62102;SDS011;48077;48.104;11.702;2023-07-30T02:22:26;61.42;;;56.08;;
62102;SDS011;48077;48.104;11.702;2023-07-30T02:24:49;63.63;;;58.10;;
62102;SDS011;48077;48.104;11.702;2023-07-30T02:27:15;63.88;;;58.22;;
62102;SDS011;48077;48.104;11.702;2023-07-30T02:29:38;57.05;;;52.22;;
62102;SDS011;48077;48.104;11.702;2023-07-30T02:32:02;67.72;;;61.50;;
62102;SDS011;48077;48.104;11.702;2023-07-30T02:34:25;55.47;;;50.78;;
62102;SDS011;48077;48.104;11.702;2023-07-30T02:36:49;62.22;;;56.75;;
62102;SDS011;48077;48.104;11.702;2023-07-30T02:39:12;62.38;;;56.75;;
62102;SDS011;48077;48.104;11.702;2023-07-30T02:41:35;62.67;;;57.05;;
62102;SDS011;48077;48.104;11.702;2023-07-30T02:43:59;63.47;;;57.83;;
62102;SDS011;48077;48.104;11.702;2023-07-30T02:46:22;58.70;;;53.80;;
62102;SDS011;48077;48.104;11.702;2023-07-30T02:48:45;60.78;;;55.42;;
62102;SDS011;48077;48.104;11.702;2023-07-30T02:51:09;58.15;;;53.08;;
62102;SDS011;48077;48.104;11.702;2023-07-30T02:53:32;61.08;;;55.70;;
62102;SDS011;48077;48.104;11.702;2023-07-30T02:55:55;59.30;;;54.13;;
62102;SDS011;48077;48.104;11.702;2023-07-30T02:58:19;57.17;;;52.17;;
62102;SDS011;48077;48.104;11.702;2023-07-30T03:00:42;60.95;;;55.53;;
62102;SDS011;48077;48.104;11.702;2023-07-30T03:03:05;59.20;;;53.90;;
62102;SDS011;48077;48.104;11.702;2023-07-30T03:05:29;59.67;;;54.58;;
62102;SDS011;48077;48.104;11.702;2023-07-30T03:07:52;58.25;;;53.13;;
62102;SDS011;48077;48.104;11.702;2023-07-30T03:10:16;55.90;;;50.88;;
62102;SDS011;48077;48.104;11.702;2023-07-30T03:12:39;56.28;;;51.58;;
62102;SDS011;48077;48.104;11.702;2023-07-30T03:15:02;53.72;;;48.95;;
62102;SDS011;48077;48.104;11.702;2023-07-30T03:17:26;55.35;;;50.65;;
62102;SDS011;48077;48.104;11.702;2023-07-30T03:19:49;54.72;;;50.08;;
62102;SDS011;48077;48.104;11.702;2023-07-30T03:22:13;53.55;;;49.08;;
62102;SDS011;48077;48.104;11.702;2023-07-30T03:24:36;56.55;;;51.67;;
62102;SDS011;48077;48.104;11.702;2023-07-30T03:26:59;53.45;;;48.88;;
62102;SDS011;48077;48.104;11.702;2023-07-30T03:29:23;50.78;;;46.67;;
62102;SDS011;48077;48.104;11.702;2023-07-30T03:31:46;53.42;;;48.90;;
62102;SDS011;48077;48.104;11.702;2023-07-30T03:34:09;53.38;;;48.72;;
62102;SDS011;48077;48.104;11.702;2023-07-30T03:36:33;58.28;;;53.08;;
62102;SDS011;48077;48.104;11.702;2023-07-30T03:38:56;48.60;;;44.50;;
62102;SDS011;48077;48.104;11.702;2023-07-30T03:41:22;54.75;;;49.90;;
62102;SDS011;48077;48.104;11.702;2023-07-30T03:43:45;50.85;;;46.35;;
62102;SDS011;48077;48.104;11.702;2023-07-30T03:46:08;51.00;;;46.38;;
62102;SDS011;48077;48.104;11.702;2023-07-30T03:48:32;48.63;;;44.33;;
62102;SDS011;48077;48.104;11.702;2023-07-30T03:50:55;50.13;;;46.03;;
62102;SDS011;48077;48.104;11.702;2023-07-30T03:53:19;49.50;;;45.35;;
62102;SDS011;48077;48.104;11.702;2023-07-30T03:55:43;51.75;;;47.40;;
62102;SDS011;48077;48.104;11.702;2023-07-30T03:58:07;56.15;;;51.33;;
62102;SDS011;48077;48.104;11.702;2023-07-30T04:00:30;51.35;;;46.85;;
62102;SDS011;48077;48.104;11.702;2023-07-30T04:02:53;50.33;;;46.13;;
62102;SDS011;48077;48.104;11.702;2023-07-30T04:05:17;53.85;;;49.00;;
62102;SDS011;48077;48.104;11.702;2023-07-30T04:07:42;51.35;;;47.00;;
62102;SDS011;48077;48.104;11.702;2023-07-30T04:10:06;52.85;;;47.97;;
62102;SDS011;48077;48.104;11.702;2023-07-30T04:12:29;49.72;;;45.53;;
62102;SDS011;48077;48.104;11.702;2023-07-30T04:14:53;55.78;;;50.78;;
62102;SDS011;48077;48.104;11.702;2023-07-30T04:17:16;56.03;;;51.33;;
62102;SDS011;48077;48.104;11.702;2023-07-30T04:19:39;50.45;;;46.05;;
62102;SDS011;48077;48.104;11.702;2023-07-30T04:22:03;52.58;;;48.03;;
62102;SDS011;48077;48.104;11.702;2023-07-30T04:24:26;50.80;;;46.42;;
62102;SDS011;48077;48.104;11.702;2023-07-30T04:26:49;57.67;;;52.75;;
62102;SDS011;48077;48.104;11.702;2023-07-30T04:29:13;55.58;;;50.72;;
62102;SDS011;48077;48.104;11.702;2023-07-30T04:31:37;62.28;;;56.58;;
62102;SDS011;48077;48.104;11.702;2023-07-30T04:34:00;51.67;;;47.30;;
62102;SDS011;48077;48.104;11.702;2023-07-30T04:36:23;56.38;;;51.55;;
62102;SDS011;48077;48.104;11.702;2023-07-30T04:38:47;57.50;;;52.47;;
62102;SDS011;48077;48.104;11.702;2023-07-30T04:41:10;58.15;;;53.22;;
62102;SDS011;48077;48.104;11.702;2023-07-30T04:43:34;53.42;;;48.83;;
62102;SDS011;48077;48.104;11.702;2023-07-30T04:45:57;56.85;;;52.05;;
62102;SDS011;48077;48.104;11.702;2023-07-30T04:48:20;57.28;;;52.38;;
62102;SDS011;48077;48.104;11.702;2023-07-30T04:50:44;53.60;;;48.88;;
62102;SDS011;48077;48.104;11.702;2023-07-30T04:53:07;60.53;;;55.05;;
62102;SDS011;48077;48.104;11.702;2023-07-30T04:55:31;58.28;;;52.97;;
62102;SDS011;48077;48.104;11.702;2023-07-30T04:57:55;50.20;;;45.88;;
62102;SDS011;48077;48.104;11.702;2023-07-30T05:00:18;54.95;;;50.03;;
62102;SDS011;48077;48.104;11.702;2023-07-30T05:02:42;55.85;;;50.88;;
62102;SDS011;48077;48.104;11.702;2023-07-30T05:05:05;53.67;;;49.03;;
62102;SDS011;48077;48.104;11.702;2023-07-30T05:07:28;49.97;;;45.70;;
62102;SDS011;48077;48.104;11.702;2023-07-30T05:09:52;52.85;;;48.35;;
62102;SDS011;48077;48.104;11.702;2023-07-30T05:12:15;56.05;;;51.25;;
62102;SDS011;48077;48.104;11.702;2023-07-30T05:14:39;50.83;;;46.33;;
62102;SDS011;48077;48.104;11.702;2023-07-30T05:17:02;49.60;;;45.20;;
62102;SDS011;48077;48.104;11.702;2023-07-30T05:19:26;53.55;;;48.92;;
62102;SDS011;48077;48.104;11.702;2023-07-30T05:21:49;50.47;;;46.20;;
62102;SDS011;48077;48.104;11.702;2023-07-30T05:24:12;49.58;;;45.28;;
62102;SDS011;48077;48.104;11.702;2023-07-30T05:26:36;52.38;;;47.67;;
62102;SDS011;48077;48.104;11.702;2023-07-30T05:28:59;53.97;;;49.17;;
62102;SDS011;48077;48.104;11.702;2023-07-30T05:31:22;48.88;;;44.83;;
62102;SDS011;48077;48.104;11.702;2023-07-30T05:33:46;44.13;;;40.35;;
62102;SDS011;48077;48.104;11.702;2023-07-30T05:36:09;49.20;;;44.90;;
62102;SDS011;48077;48.104;11.702;2023-07-30T05:38:32;47.22;;;43.08;;
62102;SDS011;48077;48.104;11.702;2023-07-30T05:40:56;44.17;;;40.38;;
62102;SDS011;48077;48.104;11.702;2023-07-30T05:43:19;43.58;;;39.95;;
62102;SDS011;48077;48.104;11.702;2023-07-30T05:45:43;45.33;;;41.42;;
62102;SDS011;48077;48.104;11.702;2023-07-30T05:48:06;39.30;;;35.85;;
62102;SDS011;48077;48.104;11.702;2023-07-30T05:50:29;39.03;;;35.78;;
62102;SDS011;48077;48.104;11.702;2023-07-30T05:52:53;41.28;;;37.47;;
62102;SDS011;48077;48.104;11.702;2023-07-30T05:55:16;38.53;;;35.38;;
62102;SDS011;48077;48.104;11.702;2023-07-30T05:57:40;38.90;;;35.45;;
62102;SDS011;48077;48.104;11.702;2023-07-30T06:00:03;33.35;;;30.25;;
62102;SDS011;48077;48.104;11.702;2023-07-30T06:02:27;34.88;;;32.03;;
62102;SDS011;48077;48.104;11.702;2023-07-30T06:04:50;31.15;;;28.55;;
62102;SDS011;48077;48.104;11.702;2023-07-30T06:07:14;30.27;;;27.70;;
62102;SDS011;48077;48.104;11.702;2023-07-30T06:09:39;30.23;;;27.60;;
62102;SDS011;48077;48.104;11.702;2023-07-30T06:12:03;29.13;;;26.67;;
62102;SDS011;48077;48.104;11.702;2023-07-30T06:14:26;29.85;;;27.30;;
62102;SDS011;48077;48.104;11.702;2023-07-30T06:16:53;29.52;;;26.77;;
62102;SDS011;48077;48.104;11.702;2023-07-30T06:19:17;32.50;;;29.27;;
62102;SDS011;48077;48.104;11.702;2023-07-30T06:21:40;33.78;;;30.27;;
62102;SDS011;48077;48.104;11.702;2023-07-30T06:24:04;29.10;;;26.33;;
62102;SDS011;48077;48.104;11.702;2023-07-30T06:26:27;26.23;;;24.05;;
62102;SDS011;48077;48.104;11.702;2023-07-30T06:28:50;26.73;;;24.58;;
62102;SDS011;48077;48.104;11.702;2023-07-30T06:31:14;26.38;;;23.83;;
62102;SDS011;48077;48.104;11.702;2023-07-30T06:33:37;25.90;;;23.63;;
62102;SDS011;48077;48.104;11.702;2023-07-30T06:36:00;22.60;;;20.63;;
62102;SDS011;48077;48.104;11.702;2023-07-30T06:38:24;23.75;;;21.52;;
62102;SDS011;48077;48.104;11.702;2023-07-30T06:40:47;21.45;;;19.10;;
62102;SDS011;48077;48.104;11.702;2023-07-30T06:43:13;21.95;;;19.90;;
62102;SDS011;48077;48.104;11.702;2023-07-30T06:45:36;25.15;;;22.65;;
62102;SDS011;48077;48.104;11.702;2023-07-30T06:48:00;18.25;;;16.45;;
62102;SDS011;48077;48.104;11.702;2023-07-30T06:50:23;20.50;;;18.42;;
62102;SDS011;48077;48.104;11.702;2023-07-30T06:52:47;20.55;;;18.45;;
62102;SDS011;48077;48.104;11.702;2023-07-30T06:55:10;16.58;;;15.02;;
62102;SDS011;48077;48.104;11.702;2023-07-30T06:57:33;17.48;;;15.77;;
62102;SDS011;48077;48.104;11.702;2023-07-30T06:59:57;17.90;;;16.25;;
62102;SDS011;48077;48.104;11.702;2023-07-30T07:02:21;17.33;;;15.23;;
62102;SDS011;48077;48.104;11.702;2023-07-30T07:04:44;17.85;;;16.02;;
62102;SDS011;48077;48.104;11.702;2023-07-30T07:07:07;18.08;;;15.82;;
62102;SDS011;48077;48.104;11.702;2023-07-30T07:09:31;16.58;;;14.60;;
62102;SDS011;48077;48.104;11.702;2023-07-30T07:11:54;15.25;;;13.68;;
62102;SDS011;48077;48.104;11.702;2023-07-30T07:14:18;14.20;;;12.77;;
62102;SDS011;48077;48.104;11.702;2023-07-30T07:16:41;15.45;;;13.75;;
62102;SDS011;48077;48.104;11.702;2023-07-30T07:19:04;13.77;;;12.38;;
62102;SDS011;48077;48.104;11.702;2023-07-30T07:21:28;12.88;;;11.38;;
62102;SDS011;48077;48.104;11.702;2023-07-30T07:23:51;16.58;;;14.88;;
62102;SDS011;48077;48.104;11.702;2023-07-30T07:26:15;14.63;;;12.55;;
62102;SDS011;48077;48.104;11.702;2023-07-30T07:28:38;13.38;;;11.20;;
62102;SDS011;48077;48.104;11.702;2023-07-30T07:31:02;15.43;;;12.45;;
62102;SDS011;48077;48.104;11.702;2023-07-30T07:33:25;17.67;;;10.40;;
62102;SDS011;48077;48.104;11.702;2023-07-30T07:35:48;14.38;;;11.27;;
62102;SDS011;48077;48.104;11.702;2023-07-30T07:38:12;12.10;;;9.82;;
62102;SDS011;48077;48.104;11.702;2023-07-30T07:40:36;10.57;;;9.25;;
62102;SDS011;48077;48.104;11.702;2023-07-30T07:43:02;12.00;;;10.70;;
62102;SDS011;48077;48.104;11.702;2023-07-30T07:45:26;12.63;;;9.90;;
62102;SDS011;48077;48.104;11.702;2023-07-30T07:47:49;10.57;;;8.73;;
62102;SDS011;48077;48.104;11.702;2023-07-30T07:50:12;14.27;;;10.98;;
62102;SDS011;48077;48.104;11.702;2023-07-30T07:52:36;12.02;;;9.82;;
62102;SDS011;48077;48.104;11.702;2023-07-30T07:54:59;10.80;;;9.55;;
62102;SDS011;48077;48.104;11.702;2023-07-30T07:57:23;13.10;;;9.18;;
62102;SDS011;48077;48.104;11.702;2023-07-30T07:59:46;10.93;;;9.75;;
62102;SDS011;48077;48.104;11.702;2023-07-30T08:02:10;9.75;;;8.15;;
62102;SDS011;48077;48.104;11.702;2023-07-30T08:04:34;11.07;;;8.80;;
62102;SDS011;48077;48.104;11.702;2023-07-30T08:06:58;12.95;;;8.88;;
62102;SDS011;48077;48.104;11.702;2023-07-30T08:09:26;9.20;;;7.33;;
62102;SDS011;48077;48.104;11.702;2023-07-30T08:11:49;9.32;;;8.13;;
62102;SDS011;48077;48.104;11.702;2023-07-30T08:14:12;11.70;;;9.15;;
62102;SDS011;48077;48.104;11.702;2023-07-30T08:16:36;15.05;;;11.02;;
62102;SDS011;48077;48.104;11.702;2023-07-30T08:18:59;13.30;;;10.20;;
62102;SDS011;48077;48.104;11.702;2023-07-30T08:21:22;11.75;;;8.57;;
62102;SDS011;48077;48.104;11.702;2023-07-30T08:23:46;12.63;;;9.30;;
62102;SDS011;48077;48.104;11.702;2023-07-30T08:26:09;12.63;;;8.68;;
62102;SDS011;48077;48.104;11.702;2023-07-30T08:28:33;11.73;;;8.18;;
62102;SDS011;48077;48.104;11.702;2023-07-30T08:31:00;10.50;;;7.50;;
62102;SDS011;48077;48.104;11.702;2023-07-30T08:33:25;12.07;;;7.68;;
62102;SDS011;48077;48.104;11.702;2023-07-30T08:35:49;11.02;;;7.70;;
62102;SDS011;48077;48.104;11.702;2023-07-30T08:38:12;14.98;;;11.20;;
62102;SDS011;48077;48.104;11.702;2023-07-30T08:40:36;12.82;;;8.30;;
62102;SDS011;48077;48.104;11.702;2023-07-30T08:42:59;10.02;;;6.93;;
62102;SDS011;48077;48.104;11.702;2023-07-30T08:45:22;10.77;;;6.75;;
62102;SDS011;48077;48.104;11.702;2023-07-30T08:47:46;10.63;;;6.65;;
62102;SDS011;48077;48.104;11.702;2023-07-30T08:50:10;12.98;;;7.03;;
62102;SDS011;48077;48.104;11.702;2023-07-30T08:52:33;10.05;;;6.70;;
62102;SDS011;48077;48.104;11.702;2023-07-30T08:54:58;8.70;;;6.13;;
62102;SDS011;48077;48.104;11.702;2023-07-30T08:57:24;9.80;;;8.00;;
62102;SDS011;48077;48.104;11.702;2023-07-30T08:59:50;8.82;;;5.82;;
62102;SDS011;48077;48.104;11.702;2023-07-30T09:02:30;12.00;;;7.55;;
62102;SDS011;48077;48.104;11.702;2023-07-30T09:04:58;8.45;;;6.18;;
62102;SDS011;48077;48.104;11.702;2023-07-30T09:07:24;8.80;;;5.95;;
62102;SDS011;48077;48.104;11.702;2023-07-30T09:09:47;8.95;;;6.13;;
62102;SDS011;48077;48.104;11.702;2023-07-30T09:12:14;7.80;;;5.88;;
62102;SDS011;48077;48.104;11.702;2023-07-30T09:14:37;12.65;;;8.60;;
62102;SDS011;48077;48.104;11.702;2023-07-30T09:17:01;8.23;;;5.68;;
62102;SDS011;48077;48.104;11.702;2023-07-30T09:19:24;9.35;;;6.03;;
62102;SDS011;48077;48.104;11.702;2023-07-30T09:21:48;7.53;;;5.60;;
62102;SDS011;48077;48.104;11.702;2023-07-30T09:24:12;15.75;;;9.02;;
62102;SDS011;48077;48.104;11.702;2023-07-30T09:26:45;9.75;;;7.68;;
62102;SDS011;48077;48.104;11.702;2023-07-30T09:29:09;8.00;;;5.65;;
62102;SDS011;48077;48.104;11.702;2023-07-30T09:31:40;10.75;;;7.10;;
62102;SDS011;48077;48.104;11.702;2023-07-30T09:34:08;9.73;;;7.20;;
62102;SDS011;48077;48.104;11.702;2023-07-30T09:36:31;8.45;;;5.50;;
62102;SDS011;48077;48.104;11.702;2023-07-30T09:38:55;9.00;;;7.13;;
62102;SDS011;48077;48.104;11.702;2023-07-30T09:41:18;11.05;;;5.80;;
62102;SDS011;48077;48.104;11.702;2023-07-30T09:43:44;8.82;;;7.03;;
62102;SDS011;48077;48.104;11.702;2023-07-30T09:46:08;11.65;;;6.00;;
62102;SDS011;48077;48.104;11.702;2023-07-30T09:48:31;7.68;;;4.82;;
62102;SDS011;48077;48.104;11.702;2023-07-30T09:50:56;10.13;;;5.72;;
62102;SDS011;48077;48.104;11.702;2023-07-30T09:53:21;10.05;;;7.10;;
62102;SDS011;48077;48.104;11.702;2023-07-30T09:55:48;9.55;;;5.57;;
62102;SDS011;48077;48.104;11.702;2023-07-30T09:58:11;11.40;;;7.35;;
62102;SDS011;48077;48.104;11.702;2023-07-30T10:00:35;8.05;;;5.32;;
62102;SDS011;48077;48.104;11.702;2023-07-30T10:02:58;9.32;;;6.93;;
62102;SDS011;48077;48.104;11.702;2023-07-30T10:05:25;10.90;;;7.55;;
62102;SDS011;48077;48.104;11.702;2023-07-30T10:07:58;12.32;;;6.32;;
62102;SDS011;48077;48.104;11.702;2023-07-30T10:10:25;7.18;;;5.30;;
62102;SDS011;48077;48.104;11.702;2023-07-30T10:12:51;8.95;;;6.88;;
62102;SDS011;48077;48.104;11.702;2023-07-30T10:15:19;7.72;;;5.38;;
62102;SDS011;48077;48.104;11.702;2023-07-30T10:17:46;9.57;;;5.30;;
62102;SDS011;48077;48.104;11.702;2023-07-30T10:20:31;8.52;;;5.25;;
62102;SDS011;48077;48.104;11.702;2023-07-30T10:22:54;8.23;;;5.57;;
62102;SDS011;48077;48.104;11.702;2023-07-30T10:25:20;9.02;;;7.07;;
62102;SDS011;48077;48.104;11.702;2023-07-30T10:27:45;8.90;;;5.63;;
62102;SDS011;48077;48.104;11.702;2023-07-30T10:30:16;7.80;;;5.55;;
62102;SDS011;48077;48.104;11.702;2023-07-30T10:35:38;8.45;;;5.15;;
62102;SDS011;48077;48.104;11.702;2023-07-30T10:40:41;10.32;;;7.97;;
62102;SDS011;48077;48.104;11.702;2023-07-30T10:43:13;11.20;;;8.38;;
62102;SDS011;48077;48.104;11.702;2023-07-30T10:45:49;9.60;;;6.35;;
62102;SDS011;48077;48.104;11.702;2023-07-30T10:48:13;8.85;;;5.78;;
62102;SDS011;48077;48.104;11.702;2023-07-30T10:50:37;10.13;;;8.73;;
62102;SDS011;48077;48.104;11.702;2023-07-30T10:53:00;8.55;;;6.13;;
62102;SDS011;48077;48.104;11.702;2023-07-30T10:55:29;9.50;;;5.88;;
62102;SDS011;48077;48.104;11.702;2023-07-30T11:00:15;12.13;;;7.43;;
62102;SDS011;48077;48.104;11.702;2023-07-30T11:02:39;7.55;;;6.18;;
62102;SDS011;48077;48.104;11.702;2023-07-30T11:05:13;7.43;;;5.70;;
62102;SDS011;48077;48.104;11.702;2023-07-30T11:07:36;9.45;;;6.18;;
62102;SDS011;48077;48.104;11.702;2023-07-30T11:10:02;5.85;;;4.85;;
62102;SDS011;48077;48.104;11.702;2023-07-30T11:12:26;7.43;;;5.50;;
62102;SDS011;48077;48.104;11.702;2023-07-30T11:14:49;10.30;;;5.80;;
62102;SDS011;48077;48.104;11.702;2023-07-30T11:17:14;11.15;;;6.07;;
62102;SDS011;48077;48.104;11.702;2023-07-30T11:19:43;6.60;;;4.78;;
62102;SDS011;48077;48.104;11.702;2023-07-30T11:22:07;7.45;;;5.47;;
62102;SDS011;48077;48.104;11.702;2023-07-30T11:24:36;6.82;;;5.13;;
62102;SDS011;48077;48.104;11.702;2023-07-30T11:27:00;7.88;;;5.55;;
62102;SDS011;48077;48.104;11.702;2023-07-30T11:29:24;7.03;;;5.03;;
62102;SDS011;48077;48.104;11.702;2023-07-30T11:31:47;6.15;;;4.40;;
62102;SDS011;48077;48.104;11.702;2023-07-30T11:34:11;7.43;;;4.88;;
62102;SDS011;48077;48.104;11.702;2023-07-30T11:36:37;9.52;;;5.15;;
62102;SDS011;48077;48.104;11.702;2023-07-30T11:39:00;7.10;;;4.55;;
62102;SDS011;48077;48.104;11.702;2023-07-30T11:41:24;8.50;;;4.70;;
62102;SDS011;48077;48.104;11.702;2023-07-30T11:43:48;6.80;;;4.35;;
62102;SDS011;48077;48.104;11.702;2023-07-30T11:46:12;9.57;;;5.30;;
62102;SDS011;48077;48.104;11.702;2023-07-30T11:48:37;6.05;;;4.30;;
62102;SDS011;48077;48.104;11.702;2023-07-30T11:51:04;7.05;;;4.80;;
62102;SDS011;48077;48.104;11.702;2023-07-30T11:53:43;5.60;;;4.20;;
62102;SDS011;48077;48.104;11.702;2023-07-30T11:56:25;9.15;;;4.85;;
62102;SDS011;48077;48.104;11.702;2023-07-30T11:58:55;11.68;;;6.90;;
62102;SDS011;48077;48.104;11.702;2023-07-30T12:01:21;8.60;;;6.22;;
62102;SDS011;48077;48.104;11.702;2023-07-30T12:03:47;11.40;;;5.30;;
62102;SDS011;48077;48.104;11.702;2023-07-30T12:06:10;11.32;;;5.05;;
62102;SDS011;48077;48.104;11.702;2023-07-30T12:08:34;7.90;;;5.82;;
62102;SDS011;48077;48.104;11.702;2023-07-30T12:11:01;6.20;;;4.63;;
62102;SDS011;48077;48.104;11.702;2023-07-30T12:13:29;8.05;;;4.80;;
62102;SDS011;48077;48.104;11.702;2023-07-30T12:15:53;7.22;;;4.78;;
62102;SDS011;48077;48.104;11.702;2023-07-30T12:18:16;7.18;;;5.03;;
62102;SDS011;48077;48.104;11.702;2023-07-30T12:20:40;8.15;;;6.40;;
62102;SDS011;48077;48.104;11.702;2023-07-30T12:23:03;9.98;;;6.43;;
62102;SDS011;48077;48.104;11.702;2023-07-30T12:25:26;7.90;;;6.03;;
62102;SDS011;48077;48.104;11.702;2023-07-30T12:27:50;7.63;;;4.78;;
62102;SDS011;48077;48.104;11.702;2023-07-30T12:30:13;8.23;;;5.28;;
62102;SDS011;48077;48.104;11.702;2023-07-30T12:32:36;8.88;;;5.18;;
62102;SDS011;48077;48.104;11.702;2023-07-30T12:35:00;11.05;;;6.68;;
62102;SDS011;48077;48.104;11.702;2023-07-30T12:37:23;7.15;;;4.65;;
62102;SDS011;48077;48.104;11.702;2023-07-30T12:39:46;8.82;;;4.85;;
62102;SDS011;48077;48.104;11.702;2023-07-30T12:42:10;6.60;;;4.85;;
62102;SDS011;48077;48.104;11.702;2023-07-30T12:44:33;7.40;;;4.78;;
62102;SDS011;48077;48.104;11.702;2023-07-30T12:46:57;7.57;;;4.60;;
62102;SDS011;48077;48.104;11.702;2023-07-30T12:49:20;8.70;;;4.82;;
62102;SDS011;48077;48.104;11.702;2023-07-30T12:51:43;11.27;;;5.63;;
62102;SDS011;48077;48.104;11.702;2023-07-30T12:54:07;10.63;;;5.40;;
62102;SDS011;48077;48.104;11.702;2023-07-30T12:56:30;7.40;;;4.72;;
62102;SDS011;48077;48.104;11.702;2023-07-30T12:58:53;9.23;;;5.22;;
62102;SDS011;48077;48.104;11.702;2023-07-30T13:01:17;7.55;;;4.60;;
62102;SDS011;48077;48.104;11.702;2023-07-30T13:03:40;6.85;;;4.80;;
62102;SDS011;48077;48.104;11.702;2023-07-30T13:06:08;9.33;;;5.20;;
62102;SDS011;48077;48.104;11.702;2023-07-30T13:08:31;10.02;;;6.90;;
62102;SDS011;48077;48.104;11.702;2023-07-30T13:10:54;11.00;;;5.55;;
62102;SDS011;48077;48.104;11.702;2023-07-30T13:13:18;11.35;;;6.43;;
62102;SDS011;48077;48.104;11.702;2023-07-30T13:15:41;10.60;;;5.80;;
62102;SDS011;48077;48.104;11.702;2023-07-30T13:18:04;11.55;;;5.80;;
62102;SDS011;48077;48.104;11.702;2023-07-30T13:20:28;9.48;;;6.57;;
62102;SDS011;48077;48.104;11.702;2023-07-30T13:22:51;10.70;;;5.35;;
62102;SDS011;48077;48.104;11.702;2023-07-30T13:25:15;9.75;;;5.43;;
62102;SDS011;48077;48.104;11.702;2023-07-30T13:27:38;8.60;;;5.05;;
62102;SDS011;48077;48.104;11.702;2023-07-30T13:30:02;7.55;;;4.85;;
62102;SDS011;48077;48.104;11.702;2023-07-30T13:32:25;6.97;;;4.70;;
62102;SDS011;48077;48.104;11.702;2023-07-30T13:34:49;8.23;;;4.78;;
62102;SDS011;48077;48.104;11.702;2023-07-30T13:37:12;8.43;;;5.13;;
62102;SDS011;48077;48.104;11.702;2023-07-30T13:39:35;5.75;;;4.32;;
62102;SDS011;48077;48.104;11.702;2023-07-30T13:41:59;7.45;;;4.63;;
62102;SDS011;48077;48.104;11.702;2023-07-30T13:44:22;7.05;;;4.60;;
62102;SDS011;48077;48.104;11.702;2023-07-30T13:46:46;10.93;;;5.05;;
62102;SDS011;48077;48.104;11.702;2023-07-30T13:49:09;10.38;;;6.20;;
62102;SDS011;48077;48.104;11.702;2023-07-30T13:51:32;12.68;;;5.70;;
62102;SDS011;48077;48.104;11.702;2023-07-30T13:53:56;13.10;;;5.50;;
62102;SDS011;48077;48.104;11.702;2023-07-30T13:56:19;11.32;;;6.35;;
62102;SDS011;48077;48.104;11.702;2023-07-30T13:58:43;11.65;;;5.65;;
62102;SDS011;48077;48.104;11.702;2023-07-30T14:01:06;14.75;;;7.57;;
62102;SDS011;48077;48.104;11.702;2023-07-30T14:03:32;12.80;;;5.57;;
62102;SDS011;48077;48.104;11.702;2023-07-30T14:05:55;7.32;;;5.28;;
62102;SDS011;48077;48.104;11.702;2023-07-30T14:08:19;8.40;;;5.95;;
62102;SDS011;48077;48.104;11.702;2023-07-30T14:10:42;10.18;;;6.22;;
62102;SDS011;48077;48.104;11.702;2023-07-30T14:13:05;15.45;;;9.05;;